sensor_id;sensor_type;location;lat;lon;timestamp;P1;durP1;ratioP1;P2;durP2;ratioP2
21917;SDS011;11123;49.882;8.662;2022-11-15T00:02:36;5.70;;;2.63;;
21917;SDS011;11123;49.882;8.662;2022-11-15T00:05:24;5.93;;;2.50;;
21917;SDS011;11123;49.882;8.662;2022-11-15T00:08:11;4.57;;;2.33;;
21917;SDS011;11123;49.882;8.662;2022-11-15T00:10:58;5.40;;;2.45;;
21917;SDS011;11123;49.882;8.662;2022-11-15T00:13:48;5.28;;;2.60;;
21917;SDS011;11123;49.882;8.662;2022-11-15T00:16:34;7.40;;;2.78;;
21917;SDS011;11123;49.882;8.662;2022-11-15T00:19:21;6.20;;;2.63;;
21917;SDS011;11123;49.882;8.662;2022-11-15T00:22:07;6.30;;;2.88;;
21917;SDS011;11123;49.882;8.662;2022-11-15T00:24:54;5.88;;;2.60;;
21917;SDS011;11123;49.882;8.662;2022-11-15T00:27:41;8.60;;;2.75;;
21917;SDS011;11123;49.882;8.662;2022-11-15T00:30:29;5.53;;;2.30;;
21917;SDS011;11123;49.882;8.662;2022-11-15T00:33:16;8.68;;;2.50;;
21917;SDS011;11123;49.882;8.662;2022-11-15T00:36:04;5.15;;;2.40;;
21917;SDS011;11123;49.882;8.662;2022-11-15T00:38:54;6.40;;;3.10;;
21917;SDS011;11123;49.882;8.662;2022-11-15T00:41:41;5.25;;;2.75;;
21917;SDS011;11123;49.882;8.662;2022-11-15T00:44:28;5.63;;;2.33;;
21917;SDS011;11123;49.882;8.662;2022-11-15T00:47:16;4.93;;;2.35;;
21917;SDS011;11123;49.882;8.662;2022-11-15T00:50:04;6.28;;;2.60;;
21917;SDS011;11123;49.882;8.662;2022-11-15T00:52:51;5.75;;;2.50;;
21917;SDS011;11123;49.882;8.662;2022-11-15T00:55:38;4.90;;;2.70;;
21917;SDS011;11123;49.882;8.662;2022-11-15T00:58:25;5.55;;;2.53;;
21917;SDS011;11123;49.882;8.662;2022-11-15T01:01:12;6.22;;;2.40;;
21917;SDS011;11123;49.882;8.662;2022-11-15T01:04:02;8.38;;;2.65;;
21917;SDS011;11123;49.882;8.662;2022-11-15T01:06:48;5.25;;;2.50;;
21917;SDS011;11123;49.882;8.662;2022-11-15T01:09:35;6.13;;;2.60;;
21917;SDS011;11123;49.882;8.662;2022-11-15T01:12:22;7.30;;;2.67;;
21917;SDS011;11123;49.882;8.662;2022-11-15T01:15:09;4.97;;;2.60;;
21917;SDS011;11123;49.882;8.662;2022-11-15T01:17:56;4.50;;;2.75;;
21917;SDS011;11123;49.882;8.662;2022-11-15T01:20:44;4.80;;;2.50;;
21917;SDS011;11123;49.882;8.662;2022-11-15T01:23:31;6.20;;;2.63;;
21917;SDS011;11123;49.882;8.662;2022-11-15T01:26:18;5.80;;;2.50;;
21917;SDS011;11123;49.882;8.662;2022-11-15T01:29:05;6.15;;;2.42;;
21917;SDS011;11123;49.882;8.662;2022-11-15T01:31:52;4.65;;;2.30;;
21917;SDS011;11123;49.882;8.662;2022-11-15T01:34:39;6.00;;;2.80;;
21917;SDS011;11123;49.882;8.662;2022-11-15T01:37:27;5.50;;;2.53;;
21917;SDS011;11123;49.882;8.662;2022-11-15T01:40:14;5.70;;;2.72;;
21917;SDS011;11123;49.882;8.662;2022-11-15T01:46:06;5.60;;;2.53;;
21917;SDS011;11123;49.882;8.662;2022-11-15T01:49:05;5.43;;;3.00;;
21917;SDS011;11123;49.882;8.662;2022-11-15T01:51:58;4.50;;;2.42;;
21917;SDS011;11123;49.882;8.662;2022-11-15T01:54:47;3.80;;;2.25;;
21917;SDS011;11123;49.882;8.662;2022-11-15T01:57:36;7.53;;;2.40;;
21917;SDS011;11123;49.882;8.662;2022-11-15T02:00:24;5.85;;;2.47;;
21917;SDS011;11123;49.882;8.662;2022-11-15T02:03:13;6.18;;;2.58;;
21917;SDS011;11123;49.882;8.662;2022-11-15T02:06:00;7.88;;;2.63;;
21917;SDS011;11123;49.882;8.662;2022-11-15T02:08:47;4.97;;;2.58;;
21917;SDS011;11123;49.882;8.662;2022-11-15T02:11:37;4.70;;;2.50;;
21917;SDS011;11123;49.882;8.662;2022-11-15T02:14:24;5.97;;;2.38;;
21917;SDS011;11123;49.882;8.662;2022-11-15T02:17:21;4.65;;;2.20;;
21917;SDS011;11123;49.882;8.662;2022-11-15T02:23:58;6.80;;;2.53;;
21917;SDS011;11123;49.882;8.662;2022-11-15T02:27:11;6.22;;;2.67;;
21917;SDS011;11123;49.882;8.662;2022-11-15T02:30:25;4.85;;;2.40;;
21917;SDS011;11123;49.882;8.662;2022-11-15T02:33:24;6.07;;;2.63;;
21917;SDS011;11123;49.882;8.662;2022-11-15T02:36:21;4.20;;;2.30;;
21917;SDS011;11123;49.882;8.662;2022-11-15T02:39:18;5.03;;;2.60;;
21917;SDS011;11123;49.882;8.662;2022-11-15T02:42:13;4.97;;;2.92;;
21917;SDS011;11123;49.882;8.662;2022-11-15T02:45:22;4.60;;;2.60;;
21917;SDS011;11123;49.882;8.662;2022-11-15T02:48:14;6.05;;;2.35;;
21917;SDS011;11123;49.882;8.662;2022-11-15T02:51:02;4.78;;;2.60;;
21917;SDS011;11123;49.882;8.662;2022-11-15T02:53:50;4.70;;;2.38;;
21917;SDS011;11123;49.882;8.662;2022-11-15T02:56:36;5.13;;;2.55;;
21917;SDS011;11123;49.882;8.662;2022-11-15T02:59:43;6.85;;;2.50;;
21917;SDS011;11123;49.882;8.662;2022-11-15T03:03:07;6.45;;;2.60;;
21917;SDS011;11123;49.882;8.662;2022-11-15T03:06:09;5.70;;;2.83;;
21917;SDS011;11123;49.882;8.662;2022-11-15T03:09:07;8.00;;;2.72;;
21917;SDS011;11123;49.882;8.662;2022-11-15T03:12:02;6.53;;;2.38;;
21917;SDS011;11123;49.882;8.662;2022-11-15T03:14:58;4.47;;;2.65;;
21917;SDS011;11123;49.882;8.662;2022-11-15T03:17:50;8.90;;;3.00;;
21917;SDS011;11123;49.882;8.662;2022-11-15T03:20:41;4.80;;;2.67;;
21917;SDS011;11123;49.882;8.662;2022-11-15T03:23:30;5.13;;;2.80;;
21917;SDS011;11123;49.882;8.662;2022-11-15T03:26:19;8.02;;;2.90;;
21917;SDS011;11123;49.882;8.662;2022-11-15T03:29:10;5.40;;;3.20;;
21917;SDS011;11123;49.882;8.662;2022-11-15T03:32:01;4.90;;;3.00;;
21917;SDS011;11123;49.882;8.662;2022-11-15T03:34:55;5.53;;;2.90;;
21917;SDS011;11123;49.882;8.662;2022-11-15T03:37:48;7.40;;;3.10;;
21917;SDS011;11123;49.882;8.662;2022-11-15T03:40:38;6.18;;;2.95;;
21917;SDS011;11123;49.882;8.662;2022-11-15T03:43:29;4.70;;;2.92;;
21917;SDS011;11123;49.882;8.662;2022-11-15T03:46:26;7.03;;;3.00;;
21917;SDS011;11123;49.882;8.662;2022-11-15T03:49:19;6.10;;;2.97;;
21917;SDS011;11123;49.882;8.662;2022-11-15T03:52:10;6.72;;;3.05;;
21917;SDS011;11123;49.882;8.662;2022-11-15T03:54:59;6.15;;;3.45;;
21917;SDS011;11123;49.882;8.662;2022-11-15T03:57:48;5.78;;;2.88;;
21917;SDS011;11123;49.882;8.662;2022-11-15T04:00:37;6.75;;;3.00;;
21917;SDS011;11123;49.882;8.662;2022-11-15T04:03:23;8.73;;;3.13;;
21917;SDS011;11123;49.882;8.662;2022-11-15T04:06:10;10.23;;;3.50;;
21917;SDS011;11123;49.882;8.662;2022-11-15T04:09:03;6.00;;;3.15;;
21917;SDS011;11123;49.882;8.662;2022-11-15T04:11:51;6.35;;;3.47;;
21917;SDS011;11123;49.882;8.662;2022-11-15T04:14:38;7.55;;;3.53;;
21917;SDS011;11123;49.882;8.662;2022-11-15T04:17:46;7.25;;;3.40;;
21917;SDS011;11123;49.882;8.662;2022-11-15T04:20:34;7.18;;;3.20;;
21917;SDS011;11123;49.882;8.662;2022-11-15T04:23:39;6.00;;;3.10;;
21917;SDS011;11123;49.882;8.662;2022-11-15T04:26:45;6.13;;;3.65;;
21917;SDS011;11123;49.882;8.662;2022-11-15T04:29:33;8.00;;;3.92;;
21917;SDS011;11123;49.882;8.662;2022-11-15T04:32:20;6.88;;;3.40;;
21917;SDS011;11123;49.882;8.662;2022-11-15T04:35:07;6.40;;;3.22;;
21917;SDS011;11123;49.882;8.662;2022-11-15T04:37:54;6.07;;;3.40;;
21917;SDS011;11123;49.882;8.662;2022-11-15T04:40:41;7.50;;;3.55;;
21917;SDS011;11123;49.882;8.662;2022-11-15T04:43:28;6.25;;;3.22;;
21917;SDS011;11123;49.882;8.662;2022-11-15T04:46:18;6.50;;;3.75;;
21917;SDS011;11123;49.882;8.662;2022-11-15T04:49:04;8.13;;;3.78;;
21917;SDS011;11123;49.882;8.662;2022-11-15T04:51:51;12.30;;;3.97;;
21917;SDS011;11123;49.882;8.662;2022-11-15T04:54:38;6.55;;;3.28;;
21917;SDS011;11123;49.882;8.662;2022-11-15T04:57:27;7.57;;;3.65;;
21917;SDS011;11123;49.882;8.662;2022-11-15T05:00:14;7.68;;;3.80;;
21917;SDS011;11123;49.882;8.662;2022-11-15T05:03:04;8.40;;;4.38;;
21917;SDS011;11123;49.882;8.662;2022-11-15T05:06:08;10.40;;;4.35;;
21917;SDS011;11123;49.882;8.662;2022-11-15T05:08:55;7.28;;;4.28;;
21917;SDS011;11123;49.882;8.662;2022-11-15T05:11:43;7.10;;;4.13;;
21917;SDS011;11123;49.882;8.662;2022-11-15T05:14:30;8.73;;;4.18;;
21917;SDS011;11123;49.882;8.662;2022-11-15T05:17:17;9.07;;;4.30;;
21917;SDS011;11123;49.882;8.662;2022-11-15T05:20:06;7.75;;;4.88;;
21917;SDS011;11123;49.882;8.662;2022-11-15T05:22:53;10.27;;;4.43;;
21917;SDS011;11123;49.882;8.662;2022-11-15T05:25:40;8.10;;;4.13;;
21917;SDS011;11123;49.882;8.662;2022-11-15T05:28:27;7.28;;;4.43;;
21917;SDS011;11123;49.882;8.662;2022-11-15T05:31:15;7.18;;;3.78;;
21917;SDS011;11123;49.882;8.662;2022-11-15T05:34:02;7.35;;;3.63;;
21917;SDS011;11123;49.882;8.662;2022-11-15T05:36:52;6.53;;;3.75;;
21917;SDS011;11123;49.882;8.662;2022-11-15T05:39:40;10.30;;;4.25;;
21917;SDS011;11123;49.882;8.662;2022-11-15T05:42:26;9.93;;;3.97;;
21917;SDS011;11123;49.882;8.662;2022-11-15T05:45:13;5.45;;;3.58;;
21917;SDS011;11123;49.882;8.662;2022-11-15T05:48:05;5.78;;;3.22;;
21917;SDS011;11123;49.882;8.662;2022-11-15T05:50:54;10.30;;;5.00;;
21917;SDS011;11123;49.882;8.662;2022-11-15T05:53:44;8.05;;;4.28;;
21917;SDS011;11123;49.882;8.662;2022-11-15T05:56:31;6.78;;;4.05;;
21917;SDS011;11123;49.882;8.662;2022-11-15T05:59:18;8.75;;;3.97;;
21917;SDS011;11123;49.882;8.662;2022-11-15T06:02:05;7.03;;;3.60;;
21917;SDS011;11123;49.882;8.662;2022-11-15T06:04:52;9.18;;;4.00;;
21917;SDS011;11123;49.882;8.662;2022-11-15T06:07:39;8.45;;;4.70;;
21917;SDS011;11123;49.882;8.662;2022-11-15T06:10:27;10.35;;;5.68;;
21917;SDS011;11123;49.882;8.662;2022-11-15T06:13:14;8.23;;;5.00;;
21917;SDS011;11123;49.882;8.662;2022-11-15T06:16:01;10.52;;;5.50;;
21917;SDS011;11123;49.882;8.662;2022-11-15T06:18:48;7.65;;;4.50;;
21917;SDS011;11123;49.882;8.662;2022-11-15T06:21:35;8.52;;;4.95;;
21917;SDS011;11123;49.882;8.662;2022-11-15T06:24:22;8.82;;;4.22;;
21917;SDS011;11123;49.882;8.662;2022-11-15T06:27:10;8.52;;;4.57;;
21917;SDS011;11123;49.882;8.662;2022-11-15T06:29:57;8.05;;;3.97;;
21917;SDS011;11123;49.882;8.662;2022-11-15T06:32:44;7.72;;;4.10;;
21917;SDS011;11123;49.882;8.662;2022-11-15T06:35:32;7.82;;;4.10;;
21917;SDS011;11123;49.882;8.662;2022-11-15T06:38:20;8.68;;;3.95;;
21917;SDS011;11123;49.882;8.662;2022-11-15T06:41:07;6.07;;;3.55;;
21917;SDS011;11123;49.882;8.662;2022-11-15T06:43:57;6.22;;;3.53;;
21917;SDS011;11123;49.882;8.662;2022-11-15T06:46:44;6.30;;;3.67;;
21917;SDS011;11123;49.882;8.662;2022-11-15T06:49:31;8.07;;;3.40;;
21917;SDS011;11123;49.882;8.662;2022-11-15T06:52:18;7.22;;;3.10;;
21917;SDS011;11123;49.882;8.662;2022-11-15T06:55:05;6.43;;;2.92;;
21917;SDS011;11123;49.882;8.662;2022-11-15T06:57:53;5.18;;;3.13;;
21917;SDS011;11123;49.882;8.662;2022-11-15T07:00:41;7.57;;;3.03;;
21917;SDS011;11123;49.882;8.662;2022-11-15T07:03:28;5.82;;;2.75;;
21917;SDS011;11123;49.882;8.662;2022-11-15T07:06:16;7.97;;;3.40;;
21917;SDS011;11123;49.882;8.662;2022-11-15T07:09:03;6.15;;;2.92;;
21917;SDS011;11123;49.882;8.662;2022-11-15T07:11:50;7.00;;;2.88;;
21917;SDS011;11123;49.882;8.662;2022-11-15T07:14:36;6.55;;;3.15;;
21917;SDS011;11123;49.882;8.662;2022-11-15T07:17:24;8.48;;;3.25;;
21917;SDS011;11123;49.882;8.662;2022-11-15T07:20:11;6.60;;;3.22;;
21917;SDS011;11123;49.882;8.662;2022-11-15T07:22:59;6.97;;;3.15;;
21917;SDS011;11123;49.882;8.662;2022-11-15T07:25:46;5.78;;;3.03;;
21917;SDS011;11123;49.882;8.662;2022-11-15T07:28:33;4.93;;;2.80;;
21917;SDS011;11123;49.882;8.662;2022-11-15T07:31:21;6.75;;;3.22;;
21917;SDS011;11123;49.882;8.662;2022-11-15T07:34:09;7.13;;;3.25;;
21917;SDS011;11123;49.882;8.662;2022-11-15T07:36:58;7.80;;;3.50;;
21917;SDS011;11123;49.882;8.662;2022-11-15T07:39:44;7.13;;;3.42;;
21917;SDS011;11123;49.882;8.662;2022-11-15T07:42:32;5.53;;;3.13;;
21917;SDS011;11123;49.882;8.662;2022-11-15T07:45:39;4.90;;;3.05;;
21917;SDS011;11123;49.882;8.662;2022-11-15T07:48:27;7.30;;;3.72;;
21917;SDS011;11123;49.882;8.662;2022-11-15T07:51:29;7.30;;;3.53;;
21917;SDS011;11123;49.882;8.662;2022-11-15T07:54:15;6.53;;;2.88;;
21917;SDS011;11123;49.882;8.662;2022-11-15T07:57:02;4.78;;;2.83;;
21917;SDS011;11123;49.882;8.662;2022-11-15T07:59:52;6.00;;;3.00;;
21917;SDS011;11123;49.882;8.662;2022-11-15T08:02:39;5.18;;;2.90;;
21917;SDS011;11123;49.882;8.662;2022-11-15T08:05:26;4.97;;;2.88;;
21917;SDS011;11123;49.882;8.662;2022-11-15T08:08:14;9.52;;;2.88;;
21917;SDS011;11123;49.882;8.662;2022-11-15T08:11:02;6.43;;;3.40;;
21917;SDS011;11123;49.882;8.662;2022-11-15T08:13:49;7.20;;;2.83;;
21917;SDS011;11123;49.882;8.662;2022-11-15T08:16:37;7.10;;;2.83;;
21917;SDS011;11123;49.882;8.662;2022-11-15T08:19:23;7.57;;;2.90;;
21917;SDS011;11123;49.882;8.662;2022-11-15T08:22:10;5.75;;;3.05;;
21917;SDS011;11123;49.882;8.662;2022-11-15T08:24:59;7.55;;;3.10;;
21917;SDS011;11123;49.882;8.662;2022-11-15T08:27:46;5.05;;;2.78;;
21917;SDS011;11123;49.882;8.662;2022-11-15T08:30:34;5.72;;;2.75;;
21917;SDS011;11123;49.882;8.662;2022-11-15T08:33:23;10.35;;;3.42;;
21917;SDS011;11123;49.882;8.662;2022-11-15T08:36:11;4.78;;;2.90;;
21917;SDS011;11123;49.882;8.662;2022-11-15T08:38:59;6.00;;;2.83;;
21917;SDS011;11123;49.882;8.662;2022-11-15T08:41:47;5.60;;;3.00;;
21917;SDS011;11123;49.882;8.662;2022-11-15T08:44:34;8.63;;;3.72;;
21917;SDS011;11123;49.882;8.662;2022-11-15T08:47:21;5.68;;;2.72;;
21917;SDS011;11123;49.882;8.662;2022-11-15T08:50:09;6.80;;;3.30;;
21917;SDS011;11123;49.882;8.662;2022-11-15T08:52:55;6.53;;;3.30;;
21917;SDS011;11123;49.882;8.662;2022-11-15T08:55:42;7.38;;;3.47;;
21917;SDS011;11123;49.882;8.662;2022-11-15T08:58:30;7.22;;;3.45;;
21917;SDS011;11123;49.882;8.662;2022-11-15T09:01:18;7.60;;;3.40;;
21917;SDS011;11123;49.882;8.662;2022-11-15T09:04:06;7.38;;;4.10;;
21917;SDS011;11123;49.882;8.662;2022-11-15T09:06:53;7.72;;;3.20;;
21917;SDS011;11123;49.882;8.662;2022-11-15T09:09:39;8.27;;;3.83;;
21917;SDS011;11123;49.882;8.662;2022-11-15T09:12:26;6.78;;;3.15;;
21917;SDS011;11123;49.882;8.662;2022-11-15T09:15:15;7.85;;;3.88;;
21917;SDS011;11123;49.882;8.662;2022-11-15T09:18:02;6.50;;;3.40;;
21917;SDS011;11123;49.882;8.662;2022-11-15T09:20:49;6.82;;;3.60;;
21917;SDS011;11123;49.882;8.662;2022-11-15T09:23:36;8.07;;;3.47;;
21917;SDS011;11123;49.882;8.662;2022-11-15T09:26:23;8.32;;;3.35;;
21917;SDS011;11123;49.882;8.662;2022-11-15T09:29:10;8.40;;;3.67;;
21917;SDS011;11123;49.882;8.662;2022-11-15T09:31:58;7.65;;;3.72;;
21917;SDS011;11123;49.882;8.662;2022-11-15T09:34:47;7.65;;;3.75;;
21917;SDS011;11123;49.882;8.662;2022-11-15T09:37:35;7.55;;;3.20;;
21917;SDS011;11123;49.882;8.662;2022-11-15T09:40:22;6.38;;;3.50;;
21917;SDS011;11123;49.882;8.662;2022-11-15T09:43:19;6.50;;;3.58;;
21917;SDS011;11123;49.882;8.662;2022-11-15T09:46:17;5.55;;;3.33;;
21917;SDS011;11123;49.882;8.662;2022-11-15T09:49:23;8.32;;;3.35;;
21917;SDS011;11123;49.882;8.662;2022-11-15T09:52:15;7.57;;;3.60;;
21917;SDS011;11123;49.882;8.662;2022-11-15T09:54:46;7.28;;;3.67;;
21917;SDS011;11123;49.882;8.662;2022-11-15T09:57:21;6.85;;;3.97;;
21917;SDS011;11123;49.882;8.662;2022-11-15T09:59:58;7.00;;;3.50;;
21917;SDS011;11123;49.882;8.662;2022-11-15T10:02:58;8.27;;;3.85;;
21917;SDS011;11123;49.882;8.662;2022-11-15T10:05:38;7.53;;;3.47;;
21917;SDS011;11123;49.882;8.662;2022-11-15T10:08:11;5.40;;;3.22;;
21917;SDS011;11123;49.882;8.662;2022-11-15T10:10:49;7.40;;;3.90;;
21917;SDS011;11123;49.882;8.662;2022-11-15T10:13:40;8.60;;;3.88;;
21917;SDS011;11123;49.882;8.662;2022-11-15T10:16:15;8.10;;;3.90;;
21917;SDS011;11123;49.882;8.662;2022-11-15T10:19:11;5.90;;;3.35;;
21917;SDS011;11123;49.882;8.662;2022-11-15T10:21:49;8.32;;;3.78;;
21917;SDS011;11123;49.882;8.662;2022-11-15T10:24:25;8.18;;;3.80;;
21917;SDS011;11123;49.882;8.662;2022-11-15T10:26:55;6.50;;;3.42;;
21917;SDS011;11123;49.882;8.662;2022-11-15T10:29:24;6.75;;;3.08;;
21917;SDS011;11123;49.882;8.662;2022-11-15T10:31:53;7.13;;;3.20;;
21917;SDS011;11123;49.882;8.662;2022-11-15T10:34:22;7.93;;;3.10;;
21917;SDS011;11123;49.882;8.662;2022-11-15T10:36:55;6.88;;;2.72;;
21917;SDS011;11123;49.882;8.662;2022-11-15T10:39:25;4.82;;;2.92;;
21917;SDS011;11123;49.882;8.662;2022-11-15T10:41:53;5.20;;;2.75;;
21917;SDS011;11123;49.882;8.662;2022-11-15T10:44:24;8.07;;;2.72;;
21917;SDS011;11123;49.882;8.662;2022-11-15T10:49:57;5.85;;;3.15;;
21917;SDS011;11123;49.882;8.662;2022-11-15T10:52:28;5.65;;;3.05;;
21917;SDS011;11123;49.882;8.662;2022-11-15T10:55:00;6.45;;;3.17;;
21917;SDS011;11123;49.882;8.662;2022-11-15T10:57:32;5.82;;;2.83;;
21917;SDS011;11123;49.882;8.662;2022-11-15T11:00:06;6.97;;;3.00;;
21917;SDS011;11123;49.882;8.662;2022-11-15T11:02:56;4.97;;;2.42;;
21917;SDS011;11123;49.882;8.662;2022-11-15T11:05:27;5.13;;;2.63;;
21917;SDS011;11123;49.882;8.662;2022-11-15T11:08:21;8.10;;;3.10;;
21917;SDS011;11123;49.882;8.662;2022-11-15T11:10:54;8.65;;;3.03;;
21917;SDS011;11123;49.882;8.662;2022-11-15T11:13:29;7.10;;;2.97;;
21917;SDS011;11123;49.882;8.662;2022-11-15T11:16:00;7.13;;;2.97;;
21917;SDS011;11123;49.882;8.662;2022-11-15T11:18:49;6.90;;;2.97;;
21917;SDS011;11123;49.882;8.662;2022-11-15T11:21:26;4.82;;;2.83;;
21917;SDS011;11123;49.882;8.662;2022-11-15T11:24:10;9.68;;;3.13;;
21917;SDS011;11123;49.882;8.662;2022-11-15T11:26:46;7.43;;;2.63;;
21917;SDS011;11123;49.882;8.662;2022-11-15T11:29:27;6.35;;;2.72;;
21917;SDS011;11123;49.882;8.662;2022-11-15T11:32:13;6.97;;;2.55;;
21917;SDS011;11123;49.882;8.662;2022-11-15T11:34:55;7.07;;;2.72;;
21917;SDS011;11123;49.882;8.662;2022-11-15T11:37:31;6.32;;;2.90;;
21917;SDS011;11123;49.882;8.662;2022-11-15T11:40:11;4.28;;;2.38;;
21917;SDS011;11123;49.882;8.662;2022-11-15T11:42:50;4.65;;;2.20;;
21917;SDS011;11123;49.882;8.662;2022-11-15T11:45:30;5.68;;;2.33;;
21917;SDS011;11123;49.882;8.662;2022-11-15T11:48:36;6.38;;;2.67;;
21917;SDS011;11123;49.882;8.662;2022-11-15T11:51:11;5.15;;;2.35;;
21917;SDS011;11123;49.882;8.662;2022-11-15T11:53:47;6.18;;;2.10;;
21917;SDS011;11123;49.882;8.662;2022-11-15T11:56:21;4.13;;;2.05;;
21917;SDS011;11123;49.882;8.662;2022-11-15T11:58:53;3.58;;;1.58;;
21917;SDS011;11123;49.882;8.662;2022-11-15T12:01:23;7.07;;;1.67;;
21917;SDS011;11123;49.882;8.662;2022-11-15T12:03:55;3.60;;;1.40;;
21917;SDS011;11123;49.882;8.662;2022-11-15T12:06:28;4.32;;;1.45;;
21917;SDS011;11123;49.882;8.662;2022-11-15T12:09:01;3.40;;;1.30;;
21917;SDS011;11123;49.882;8.662;2022-11-15T12:11:37;4.57;;;1.38;;
21917;SDS011;11123;49.882;8.662;2022-11-15T12:14:12;3.90;;;1.30;;
21917;SDS011;11123;49.882;8.662;2022-11-15T12:16:49;4.03;;;1.33;;
21917;SDS011;11123;49.882;8.662;2022-11-15T12:19:17;3.08;;;1.27;;
21917;SDS011;11123;49.882;8.662;2022-11-15T12:21:46;4.15;;;1.17;;
21917;SDS011;11123;49.882;8.662;2022-11-15T12:24:21;3.65;;;1.42;;
21917;SDS011;11123;49.882;8.662;2022-11-15T12:26:57;3.22;;;1.00;;
21917;SDS011;11123;49.882;8.662;2022-11-15T12:29:31;3.45;;;1.30;;
21917;SDS011;11123;49.882;8.662;2022-11-15T12:32:04;2.97;;;1.20;;
21917;SDS011;11123;49.882;8.662;2022-11-15T12:34:43;2.70;;;1.20;;
21917;SDS011;11123;49.882;8.662;2022-11-15T12:40:26;4.32;;;1.23;;
21917;SDS011;11123;49.882;8.662;2022-11-15T12:42:59;2.50;;;1.05;;
21917;SDS011;11123;49.882;8.662;2022-11-15T12:45:30;2.78;;;1.00;;
21917;SDS011;11123;49.882;8.662;2022-11-15T12:51:06;3.40;;;0.98;;
21917;SDS011;11123;49.882;8.662;2022-11-15T12:53:34;2.70;;;1.20;;
21917;SDS011;11123;49.882;8.662;2022-11-15T12:56:21;2.40;;;0.90;;
21917;SDS011;11123;49.882;8.662;2022-11-15T12:58:53;4.47;;;1.10;;
21917;SDS011;11123;49.882;8.662;2022-11-15T13:04:34;3.10;;;1.13;;
21917;SDS011;11123;49.882;8.662;2022-11-15T13:07:02;3.92;;;1.00;;
21917;SDS011;11123;49.882;8.662;2022-11-15T13:09:56;5.90;;;0.77;;
21917;SDS011;11123;49.882;8.662;2022-11-15T13:15:43;4.32;;;1.08;;
21917;SDS011;11123;49.882;8.662;2022-11-15T13:21:21;3.15;;;1.20;;
21917;SDS011;11123;49.882;8.662;2022-11-15T13:24:13;4.03;;;1.02;;
21917;SDS011;11123;49.882;8.662;2022-11-15T13:26:43;4.88;;;1.13;;
21917;SDS011;11123;49.882;8.662;2022-11-15T13:29:14;4.13;;;1.20;;
21917;SDS011;11123;49.882;8.662;2022-11-15T13:31:46;3.03;;;1.27;;
21917;SDS011;11123;49.882;8.662;2022-11-15T13:34:17;3.17;;;0.98;;
21917;SDS011;11123;49.882;8.662;2022-11-15T13:37:12;5.40;;;1.40;;
21917;SDS011;11123;49.882;8.662;2022-11-15T13:40:10;4.88;;;1.73;;
21917;SDS011;11123;49.882;8.662;2022-11-15T13:42:46;4.40;;;1.50;;
21917;SDS011;11123;49.882;8.662;2022-11-15T13:45:15;2.55;;;1.27;;
21917;SDS011;11123;49.882;8.662;2022-11-15T13:47:51;4.07;;;1.40;;
21917;SDS011;11123;49.882;8.662;2022-11-15T13:50:23;3.75;;;1.33;;
21917;SDS011;11123;49.882;8.662;2022-11-15T13:52:56;4.15;;;1.50;;
21917;SDS011;11123;49.882;8.662;2022-11-15T13:55:28;3.40;;;1.38;;
21917;SDS011;11123;49.882;8.662;2022-11-15T13:58:00;3.67;;;1.30;;
21917;SDS011;11123;49.882;8.662;2022-11-15T14:00:36;4.35;;;1.60;;
21917;SDS011;11123;49.882;8.662;2022-11-15T14:03:19;3.30;;;1.30;;
21917;SDS011;11123;49.882;8.662;2022-11-15T14:06:01;7.07;;;1.52;;
21917;SDS011;11123;49.882;8.662;2022-11-15T14:08:33;3.83;;;1.88;;
21917;SDS011;11123;49.882;8.662;2022-11-15T14:11:05;3.20;;;1.58;;
21917;SDS011;11123;49.882;8.662;2022-11-15T14:13:35;3.45;;;1.55;;
21917;SDS011;11123;49.882;8.662;2022-11-15T14:16:14;6.20;;;1.52;;
21917;SDS011;11123;49.882;8.662;2022-11-15T14:18:47;4.45;;;1.23;;
21917;SDS011;11123;49.882;8.662;2022-11-15T14:21:17;4.00;;;1.50;;
21917;SDS011;11123;49.882;8.662;2022-11-15T14:23:47;3.30;;;1.50;;
21917;SDS011;11123;49.882;8.662;2022-11-15T14:31:49;2.58;;;1.20;;
21917;SDS011;11123;49.882;8.662;2022-11-15T14:34:19;4.53;;;1.38;;
21917;SDS011;11123;49.882;8.662;2022-11-15T14:36:48;4.00;;;1.67;;
21917;SDS011;11123;49.882;8.662;2022-11-15T14:39:17;3.72;;;1.60;;
21917;SDS011;11123;49.882;8.662;2022-11-15T14:41:45;2.70;;;1.33;;
21917;SDS011;11123;49.882;8.662;2022-11-15T14:44:14;6.05;;;1.35;;
21917;SDS011;11123;49.882;8.662;2022-11-15T14:46:45;6.10;;;1.45;;
21917;SDS011;11123;49.882;8.662;2022-11-15T14:49:14;3.03;;;1.25;;
21917;SDS011;11123;49.882;8.662;2022-11-15T14:51:44;3.53;;;1.58;;
21917;SDS011;11123;49.882;8.662;2022-11-15T14:54:12;7.45;;;1.65;;
21917;SDS011;11123;49.882;8.662;2022-11-15T14:56:41;4.15;;;1.67;;
21917;SDS011;11123;49.882;8.662;2022-11-15T14:59:10;6.47;;;1.38;;
21917;SDS011;11123;49.882;8.662;2022-11-15T15:01:38;4.97;;;1.48;;
21917;SDS011;11123;49.882;8.662;2022-11-15T15:04:08;4.68;;;1.40;;
21917;SDS011;11123;49.882;8.662;2022-11-15T15:06:38;3.47;;;1.40;;
21917;SDS011;11123;49.882;8.662;2022-11-15T15:09:07;3.42;;;1.00;;
21917;SDS011;11123;49.882;8.662;2022-11-15T15:11:36;5.00;;;1.30;;
21917;SDS011;11123;49.882;8.662;2022-11-15T15:14:04;2.58;;;1.10;;
21917;SDS011;11123;49.882;8.662;2022-11-15T15:16:32;3.05;;;1.10;;
21917;SDS011;11123;49.882;8.662;2022-11-15T15:19:01;5.22;;;1.33;;
21917;SDS011;11123;49.882;8.662;2022-11-15T15:21:30;3.60;;;1.27;;
21917;SDS011;11123;49.882;8.662;2022-11-15T15:24:02;2.70;;;1.27;;
21917;SDS011;11123;49.882;8.662;2022-11-15T15:26:32;3.28;;;1.08;;
21917;SDS011;11123;49.882;8.662;2022-11-15T15:29:04;2.38;;;1.10;;
21917;SDS011;11123;49.882;8.662;2022-11-15T15:31:33;2.38;;;1.00;;
21917;SDS011;11123;49.882;8.662;2022-11-15T15:34:01;2.97;;;1.27;;
21917;SDS011;11123;49.882;8.662;2022-11-15T15:36:30;3.67;;;1.30;;
21917;SDS011;11123;49.882;8.662;2022-11-15T15:38:58;4.30;;;1.30;;
21917;SDS011;11123;49.882;8.662;2022-11-15T15:41:27;4.78;;;1.83;;
21917;SDS011;11123;49.882;8.662;2022-11-15T15:43:56;2.97;;;1.20;;
21917;SDS011;11123;49.882;8.662;2022-11-15T15:46:25;2.50;;;1.20;;
21917;SDS011;11123;49.882;8.662;2022-11-15T15:48:53;3.78;;;1.23;;
21917;SDS011;11123;49.882;8.662;2022-11-15T15:51:21;2.53;;;1.17;;
21917;SDS011;11123;49.882;8.662;2022-11-15T15:53:50;2.58;;;1.35;;
21917;SDS011;11123;49.882;8.662;2022-11-15T15:56:23;4.80;;;1.73;;
21917;SDS011;11123;49.882;8.662;2022-11-15T15:58:52;5.25;;;1.85;;
21917;SDS011;11123;49.882;8.662;2022-11-15T16:01:23;5.03;;;1.30;;
21917;SDS011;11123;49.882;8.662;2022-11-15T16:03:51;3.45;;;1.48;;
21917;SDS011;11123;49.882;8.662;2022-11-15T16:06:32;3.10;;;1.45;;
21917;SDS011;11123;49.882;8.662;2022-11-15T16:09:05;3.53;;;1.58;;
21917;SDS011;11123;49.882;8.662;2022-11-15T16:11:42;4.53;;;1.48;;
21917;SDS011;11123;49.882;8.662;2022-11-15T16:14:12;5.63;;;1.40;;
21917;SDS011;11123;49.882;8.662;2022-11-15T16:16:41;4.93;;;1.30;;
21917;SDS011;11123;49.882;8.662;2022-11-15T16:19:10;5.15;;;1.70;;
21917;SDS011;11123;49.882;8.662;2022-11-15T16:21:39;2.97;;;1.45;;
21917;SDS011;11123;49.882;8.662;2022-11-15T16:24:08;3.83;;;1.40;;
21917;SDS011;11123;49.882;8.662;2022-11-15T16:26:36;3.78;;;1.40;;
21917;SDS011;11123;49.882;8.662;2022-11-15T16:29:05;3.63;;;1.30;;
21917;SDS011;11123;49.882;8.662;2022-11-15T16:31:35;3.70;;;1.40;;
21917;SDS011;11123;49.882;8.662;2022-11-15T16:34:06;3.60;;;1.50;;
21917;SDS011;11123;49.882;8.662;2022-11-15T16:36:34;6.65;;;1.30;;
21917;SDS011;11123;49.882;8.662;2022-11-15T16:39:03;3.45;;;1.40;;
21917;SDS011;11123;49.882;8.662;2022-11-15T16:41:33;4.60;;;1.60;;
21917;SDS011;11123;49.882;8.662;2022-11-15T16:44:01;3.25;;;1.63;;
21917;SDS011;11123;49.882;8.662;2022-11-15T16:46:30;3.30;;;1.27;;
21917;SDS011;11123;49.882;8.662;2022-11-15T16:48:58;2.67;;;1.30;;
21917;SDS011;11123;49.882;8.662;2022-11-15T16:51:28;3.13;;;1.02;;
21917;SDS011;11123;49.882;8.662;2022-11-15T16:53:56;3.20;;;1.05;;